Aérodrome :







RETROUVEZ-NOUS SUR...

 
LOGIN :

S'inscrire | Disclaimer

   EN    FR    IT 

 









Légende :    VFR   VFR Marginal   IFR   IFR Intensif   IFR Très Intensif
Visi : 
Plafond : 
>= 8 km
>= 3000ft
5 à 8 km
1000 à 3000 ft
1500m à 5 km
500 à 1000 ft
800 à 1500m
200 à 500 ft
< 800m
< 200 ft
Symboles :   Orages  Brouillard  Fortes neiges  Fortes précipitations  Vent > 20 kt






- Altitude de l'aérodrome : 124 ft
- Code IATA : YGV


CYGV - Havre St Pierre

DERNIER METAR :
  • 221300Z AUTO 09006KT 9SM OVC018 M03/M05 A2975 RMK SLP080

METARs EXPIRÉS :
  • 221200Z AUTO 10007KT 9SM OVC018 M03/M06 A2977 RMK SLP085
  • 221100Z AUTO 09007KT 9SM OVC018 M03/M06 A2980 RMK SLP095

TAF TAF CYGV
Valide du 22 à 08h jusqu'au 22 à 20h UTC


220738Z 2208/2220 08005KT P6SM OVC030
TEMPO 2208/2212 OVC020
FM221200 09010KT P6SM OVC025
TEMPO 2212/2214 5SM -SN OVC020
BECMG 2214/2216 13010G20KT RMK FCST BASED ON AUTO OBS. NXT FCST BY 221400Z



MET'MAP, la Météo Aéronautique d'un coup d'oeil ! - Copyright ORBIFLY Décembre 2007 - Disclaimer

ORBIFLY MET'MAP TEAM :

Programmation & Développement : Alexandra Zaïnal
Conception & Développement : Baudouin d'Aumeries
Co-Programmation & Développement : Marc-Olivier Méhu
Soutien technique & logistique : Manuel Goepfert

Contact : metmap@orbifly.com




SOURCES & CREDITS :

   NOAA